sensor_id;sensor_type;location;lat;lon;timestamp;pressure;altitude;pressure_sealevel;temperature;humidity
45541;BME280;31265;49.680;8.608;2022-12-07T00:02:30;100773.84;;;2.32;100.00
45541;BME280;31265;49.680;8.608;2022-12-07T00:04:59;100768.34;;;2.32;100.00
45541;BME280;31265;49.680;8.608;2022-12-07T00:07:28;100777.81;;;2.31;100.00
45541;BME280;31265;49.680;8.608;2022-12-07T00:09:57;100770.34;;;2.31;100.00
45541;BME280;31265;49.680;8.608;2022-12-07T00:12:26;100772.59;;;2.33;100.00
45541;BME280;31265;49.680;8.608;2022-12-07T00:14:55;100770.63;;;2.33;100.00
45541;BME280;31265;49.680;8.608;2022-12-07T00:17:23;100764.38;;;2.33;100.00
45541;BME280;31265;49.680;8.608;2022-12-07T00:19:52;100753.44;;;2.33;100.00
45541;BME280;31265;49.680;8.608;2022-12-07T00:22:20;100753.44;;;2.33;100.00
45541;BME280;31265;49.680;8.608;2022-12-07T00:24:49;100754.91;;;2.34;100.00
45541;BME280;31265;49.680;8.608;2022-12-07T00:27:18;100752.94;;;2.34;100.00
45541;BME280;31265;49.680;8.608;2022-12-07T00:29:47;100745.72;;;2.37;100.00
45541;BME280;31265;49.680;8.608;2022-12-07T00:32:16;100746.97;;;2.36;100.00
45541;BME280;31265;49.680;8.608;2022-12-07T00:34:46;100746.97;;;2.36;100.00
45541;BME280;31265;49.680;8.608;2022-12-07T00:37:14;100747.72;;;2.36;100.00
45541;BME280;31265;49.680;8.608;2022-12-07T00:39:43;100743.50;;;2.41;100.00
45541;BME280;31265;49.680;8.608;2022-12-07T00:42:11;100736.28;;;2.38;100.00
45541;BME280;31265;49.680;8.608;2022-12-07T00:44:40;100740.75;;;2.41;100.00
45541;BME280;31265;49.680;8.608;2022-12-07T00:47:09;100743.50;;;2.41;100.00
45541;BME280;31265;49.680;8.608;2022-12-07T00:49:38;100750.44;;;2.42;100.00
45541;BME280;31265;49.680;8.608;2022-12-07T00:52:06;100744.22;;;2.42;100.00
45541;BME280;31265;49.680;8.608;2022-12-07T00:54:36;100740.00;;;2.41;100.00
45541;BME280;31265;49.680;8.608;2022-12-07T00:57:07;100735.75;;;2.40;100.00
45541;BME280;31265;49.680;8.608;2022-12-07T00:59:36;100736.28;;;2.38;100.00
45541;BME280;31265;49.680;8.608;2022-12-07T01:02:05;100728.53;;;2.36;100.00
45541;BME280;31265;49.680;8.608;2022-12-07T01:04:35;100732.78;;;2.38;100.00
45541;BME280;31265;49.680;8.608;2022-12-07T01:07:03;100738.25;;;2.38;100.00
45541;BME280;31265;49.680;8.608;2022-12-07T01:09:32;100726.53;;;2.37;100.00
45541;BME280;31265;49.680;8.608;2022-12-07T01:12:02;100727.31;;;2.38;100.00
45541;BME280;31265;49.680;8.608;2022-12-07T01:14:30;100725.06;;;2.36;100.00
45541;BME280;31265;49.680;8.608;2022-12-07T01:17:06;100722.31;;;2.36;100.00
45541;BME280;31265;49.680;8.608;2022-12-07T01:19:34;100728.28;;;2.34;100.00
45541;BME280;31265;49.680;8.608;2022-12-07T01:22:03;100726.06;;;2.33;100.00
45541;BME280;31265;49.680;8.608;2022-12-07T01:24:31;100723.06;;;2.31;100.00
45541;BME280;31265;49.680;8.608;2022-12-07T01:27:00;100718.56;;;2.28;100.00
45541;BME280;31265;49.680;8.608;2022-12-07T01:29:29;100726.53;;;2.26;100.00
45541;BME280;31265;49.680;8.608;2022-12-07T01:31:58;100722.28;;;2.25;100.00
45541;BME280;31265;49.680;8.608;2022-12-07T01:34:28;100724.53;;;2.21;100.00
45541;BME280;31265;49.680;8.608;2022-12-07T01:37:00;100722.28;;;2.19;100.00
45541;BME280;31265;49.680;8.608;2022-12-07T01:39:30;100721.53;;;2.19;100.00
45541;BME280;31265;49.680;8.608;2022-12-07T01:41:58;100723.00;;;2.20;100.00
45541;BME280;31265;49.680;8.608;2022-12-07T01:44:29;100724.53;;;2.21;100.00
45541;BME280;31265;49.680;8.608;2022-12-07T01:47:00;100717.81;;;2.27;100.00
45541;BME280;31265;49.680;8.608;2022-12-07T01:49:35;100719.81;;;2.27;100.00
45541;BME280;31265;49.680;8.608;2022-12-07T01:52:11;100723.06;;;2.25;100.00
45541;BME280;31265;49.680;8.608;2022-12-07T01:54:42;100722.28;;;2.25;100.00
45541;BME280;31265;49.680;8.608;2022-12-07T01:57:15;100730.50;;;2.25;100.00
45541;BME280;31265;49.680;8.608;2022-12-07T01:59:45;100731.25;;;2.25;100.00
45541;BME280;31265;49.680;8.608;2022-12-07T02:02:18;100726.28;;;2.29;100.00
45541;BME280;31265;49.680;8.608;2022-12-07T02:04:49;100712.31;;;2.27;100.00
45541;BME280;31265;49.680;8.608;2022-12-07T02:07:19;100709.34;;;2.25;100.00
45541;BME280;31265;49.680;8.608;2022-12-07T02:09:50;100704.84;;;2.22;100.00
45541;BME280;31265;49.680;8.608;2022-12-07T02:12:18;100715.06;;;2.22;100.00
45541;BME280;31265;49.680;8.608;2022-12-07T02:14:47;100713.81;;;2.17;100.00
45541;BME280;31265;49.680;8.608;2022-12-07T02:17:22;100712.81;;;2.14;100.00
45541;BME280;31265;49.680;8.608;2022-12-07T02:20:09;100726.22;;;2.12;100.00
45541;BME280;31265;49.680;8.608;2022-12-07T02:26:23;100725.00;;;2.19;100.00
45541;BME280;31265;49.680;8.608;2022-12-07T02:29:11;100717.53;;;2.20;100.00
45541;BME280;31265;49.680;8.608;2022-12-07T02:31:45;100724.53;;;2.21;100.00
45541;BME280;31265;49.680;8.608;2022-12-07T02:34:21;100722.03;;;2.23;100.00
45541;BME280;31265;49.680;8.608;2022-12-07T02:36:52;100717.06;;;2.27;100.00
45541;BME280;31265;49.680;8.608;2022-12-07T02:39:29;100712.31;;;2.27;100.00
45541;BME280;31265;49.680;8.608;2022-12-07T02:42:03;100712.09;;;2.31;100.00
45541;BME280;31265;49.680;8.608;2022-12-07T02:44:37;100698.16;;;2.29;100.00
45541;BME280;31265;49.680;8.608;2022-12-07T02:47:09;100692.44;;;2.38;100.00
45541;BME280;31265;49.680;8.608;2022-12-07T02:49:41;100697.94;;;2.38;100.00
45541;BME280;31265;49.680;8.608;2022-12-07T02:52:10;100694.19;;;2.41;100.00
45541;BME280;31265;49.680;8.608;2022-12-07T02:54:39;100685.72;;;2.39;100.00
45541;BME280;31265;49.680;8.608;2022-12-07T02:57:19;100685.47;;;2.37;100.00
45541;BME280;31265;49.680;8.608;2022-12-07T03:00:01;100684.97;;;2.39;100.00
45541;BME280;31265;49.680;8.608;2022-12-07T03:02:38;100684.72;;;2.42;100.00
45541;BME280;31265;49.680;8.608;2022-12-07T03:05:20;100680.75;;;2.43;100.00
45541;BME280;31265;49.680;8.608;2022-12-07T03:07:54;100680.75;;;2.43;100.00
45541;BME280;31265;49.680;8.608;2022-12-07T03:10:33;100686.97;;;2.44;100.00
45541;BME280;31265;49.680;8.608;2022-12-07T03:13:09;100692.44;;;2.44;100.00
45541;BME280;31265;49.680;8.608;2022-12-07T03:15:46;100678.75;;;2.49;100.00
45541;BME280;31265;49.680;8.608;2022-12-07T03:18:20;100670.81;;;2.63;100.00
45541;BME280;31265;49.680;8.608;2022-12-07T03:20:53;100665.06;;;2.55;100.00
45541;BME280;31265;49.680;8.608;2022-12-07T03:23:25;100668.31;;;2.53;100.00
45541;BME280;31265;49.680;8.608;2022-12-07T03:25:55;100665.56;;;2.53;100.00
45541;BME280;31265;49.680;8.608;2022-12-07T03:28:31;100666.28;;;2.59;100.00
45541;BME280;31265;49.680;8.608;2022-12-07T03:31:03;100673.53;;;2.57;100.00
45541;BME280;31265;49.680;8.608;2022-12-07T03:33:40;100666.28;;;2.59;100.00
45541;BME280;31265;49.680;8.608;2022-12-07T03:36:14;100671.56;;;2.57;100.00
45541;BME280;31265;49.680;8.608;2022-12-07T03:38:50;100670.28;;;2.58;100.00
45541;BME280;31265;49.680;8.608;2022-12-07T03:41:23;100667.31;;;2.56;100.00
45541;BME280;31265;49.680;8.608;2022-12-07T03:43:55;100665.06;;;2.61;100.00
45541;BME280;31265;49.680;8.608;2022-12-07T03:46:32;100664.06;;;2.64;100.00
45541;BME280;31265;49.680;8.608;2022-12-07T03:49:08;100661.56;;;2.66;100.00
45541;BME280;31265;49.680;8.608;2022-12-07T03:51:42;100666.06;;;2.63;100.00
45541;BME280;31265;49.680;8.608;2022-12-07T03:54:15;100667.06;;;2.66;100.00
45541;BME280;31265;49.680;8.608;2022-12-07T03:56:48;100665.56;;;2.65;100.00
45541;BME280;31265;49.680;8.608;2022-12-07T03:59:17;100666.06;;;2.63;100.00
45541;BME280;31265;49.680;8.608;2022-12-07T04:01:54;100667.31;;;2.68;100.00
45541;BME280;31265;49.680;8.608;2022-12-07T04:04:24;100663.31;;;2.69;100.00
45541;BME280;31265;49.680;8.608;2022-12-07T04:06:53;100663.31;;;2.69;100.00
45541;BME280;31265;49.680;8.608;2022-12-07T04:09:21;100665.31;;;2.68;100.00
45541;BME280;31265;49.680;8.608;2022-12-07T04:11:49;100667.31;;;2.68;100.00
45541;BME280;31265;49.680;8.608;2022-12-07T04:14:17;100658.56;;;2.69;100.00
45541;BME280;31265;49.680;8.608;2022-12-07T04:16:46;100664.81;;;2.70;100.00
45541;BME280;31265;49.680;8.608;2022-12-07T04:19:20;100665.31;;;2.68;100.00
45541;BME280;31265;49.680;8.608;2022-12-07T04:21:50;100660.84;;;2.65;100.00
45541;BME280;31265;49.680;8.608;2022-12-07T04:24:18;100660.56;;;2.69;100.00
45541;BME280;31265;49.680;8.608;2022-12-07T04:26:49;100672.53;;;2.71;100.00
45541;BME280;31265;49.680;8.608;2022-12-07T04:29:19;100662.31;;;2.72;100.00
45541;BME280;31265;49.680;8.608;2022-12-07T04:31:48;100676.00;;;2.72;100.00
45541;BME280;31265;49.680;8.608;2022-12-07T04:34:18;100677.53;;;2.73;100.00
45541;BME280;31265;49.680;8.608;2022-12-07T04:36:47;100673.78;;;2.87;100.00
45541;BME280;31265;49.680;8.608;2022-12-07T04:39:19;100672.78;;;2.79;100.00
45541;BME280;31265;49.680;8.608;2022-12-07T04:41:49;100667.78;;;2.72;100.00
45541;BME280;31265;49.680;8.608;2022-12-07T04:44:17;100672.78;;;2.68;100.00
45541;BME280;31265;49.680;8.608;2022-12-07T04:46:46;100670.06;;;2.68;100.00
45541;BME280;31265;49.680;8.608;2022-12-07T04:49:17;100666.81;;;2.64;100.00
45541;BME280;31265;49.680;8.608;2022-12-07T04:51:46;100668.78;;;2.69;100.00
45541;BME280;31265;49.680;8.608;2022-12-07T04:54:16;100671.53;;;2.63;100.00
45541;BME280;31265;49.680;8.608;2022-12-07T04:56:46;100664.56;;;2.68;100.00
45541;BME280;31265;49.680;8.608;2022-12-07T04:59:15;100662.06;;;2.64;100.00
45541;BME280;31265;49.680;8.608;2022-12-07T05:01:46;100666.31;;;2.65;100.00
45541;BME280;31265;49.680;8.608;2022-12-07T05:04:14;100658.34;;;2.62;100.00
45541;BME280;31265;49.680;8.608;2022-12-07T05:06:45;100665.81;;;2.67;100.00
45541;BME280;31265;49.680;8.608;2022-12-07T05:09:15;100671.28;;;2.67;100.00
45541;BME280;31265;49.680;8.608;2022-12-07T05:11:44;100664.06;;;2.69;100.00
45541;BME280;31265;49.680;8.608;2022-12-07T05:14:14;100655.84;;;2.75;100.00
45541;BME280;31265;49.680;8.608;2022-12-07T05:16:46;100658.06;;;2.59;100.00
45541;BME280;31265;49.680;8.608;2022-12-07T05:19:18;100652.59;;;2.59;100.00
45541;BME280;31265;49.680;8.608;2022-12-07T05:21:48;100659.09;;;2.62;100.00
45541;BME280;31265;49.680;8.608;2022-12-07T05:24:17;100663.56;;;2.59;100.00
45541;BME280;31265;49.680;8.608;2022-12-07T05:26:47;100668.81;;;2.57;100.00
45541;BME280;31265;49.680;8.608;2022-12-07T05:29:16;100664.06;;;2.58;100.00
45541;BME280;31265;49.680;8.608;2022-12-07T05:31:45;100667.31;;;2.56;100.00
45541;BME280;31265;49.680;8.608;2022-12-07T05:34:13;100662.06;;;2.64;100.00
45541;BME280;31265;49.680;8.608;2022-12-07T05:36:42;100662.06;;;2.58;100.00
45541;BME280;31265;49.680;8.608;2022-12-07T05:39:14;100670.81;;;2.63;100.00
45541;BME280;31265;49.680;8.608;2022-12-07T05:41:42;100658.59;;;2.58;100.00
45541;BME280;31265;49.680;8.608;2022-12-07T05:44:28;100661.06;;;2.62;100.00
45541;BME280;31265;49.680;8.608;2022-12-07T05:46:57;100649.63;;;2.63;100.00
45541;BME280;31265;49.680;8.608;2022-12-07T05:49:25;100657.84;;;2.63;100.00
45541;BME280;31265;49.680;8.608;2022-12-07T05:51:57;100654.59;;;2.59;100.00
45541;BME280;31265;49.680;8.608;2022-12-07T05:54:27;100654.59;;;2.59;100.00
45541;BME280;31265;49.680;8.608;2022-12-07T05:56:55;100660.31;;;2.67;100.00
45541;BME280;31265;49.680;8.608;2022-12-07T05:59:23;100656.09;;;2.60;100.00
45541;BME280;31265;49.680;8.608;2022-12-07T06:01:52;100660.06;;;2.59;100.00
45541;BME280;31265;49.680;8.608;2022-12-07T06:04:22;100664.81;;;2.58;100.00
45541;BME280;31265;49.680;8.608;2022-12-07T06:06:51;100656.59;;;2.53;100.00
45541;BME280;31265;49.680;8.608;2022-12-07T06:09:23;100659.34;;;2.58;100.00
45541;BME280;31265;49.680;8.608;2022-12-07T06:11:54;100670.31;;;2.53;100.00
45541;BME280;31265;49.680;8.608;2022-12-07T06:14:40;100656.59;;;2.53;100.00
45541;BME280;31265;49.680;8.608;2022-12-07T06:17:09;100662.81;;;2.53;100.00
45541;BME280;31265;49.680;8.608;2022-12-07T06:19:38;100669.03;;;2.54;100.00
45541;BME280;31265;49.680;8.608;2022-12-07T06:22:06;100664.06;;;2.58;100.00
45541;BME280;31265;49.680;8.608;2022-12-07T06:24:35;100666.06;;;2.57;100.00
45541;BME280;31265;49.680;8.608;2022-12-07T06:27:05;100662.34;;;2.55;100.00
45541;BME280;31265;49.680;8.608;2022-12-07T06:29:34;100667.56;;;2.53;100.00
45541;BME280;31265;49.680;8.608;2022-12-07T06:32:06;100663.31;;;2.52;100.00
45541;BME280;31265;49.680;8.608;2022-12-07T06:34:35;100663.31;;;2.52;100.00
45541;BME280;31265;49.680;8.608;2022-12-07T06:37:03;100664.06;;;2.52;100.00
45541;BME280;31265;49.680;8.608;2022-12-07T06:39:32;100661.81;;;2.51;100.00
45541;BME280;31265;49.680;8.608;2022-12-07T06:42:00;100657.34;;;2.53;100.00
45541;BME280;31265;49.680;8.608;2022-12-07T06:44:30;100665.56;;;2.53;100.00
45541;BME280;31265;49.680;8.608;2022-12-07T06:47:01;100665.31;;;2.51;100.00
45541;BME280;31265;49.680;8.608;2022-12-07T06:49:50;100669.56;;;2.52;100.00
45541;BME280;31265;49.680;8.608;2022-12-07T06:52:18;100669.78;;;2.54;100.00
45541;BME280;31265;49.680;8.608;2022-12-07T06:54:46;100663.56;;;2.54;100.00
45541;BME280;31265;49.680;8.608;2022-12-07T06:57:16;100664.81;;;2.53;100.00
45541;BME280;31265;49.680;8.608;2022-12-07T06:59:47;100671.28;;;2.55;100.00
45541;BME280;31265;49.680;8.608;2022-12-07T07:02:15;100672.78;;;2.56;100.00
45541;BME280;31265;49.680;8.608;2022-12-07T07:04:43;100672.78;;;2.56;100.00
45541;BME280;31265;49.680;8.608;2022-12-07T07:07:11;100673.53;;;2.57;100.00
45541;BME280;31265;49.680;8.608;2022-12-07T07:09:40;100674.28;;;2.57;100.00
45541;BME280;31265;49.680;8.608;2022-12-07T07:12:11;100680.00;;;2.59;100.00
45541;BME280;31265;49.680;8.608;2022-12-07T07:14:39;100682.25;;;2.61;100.00
45541;BME280;31265;49.680;8.608;2022-12-07T07:17:11;100670.81;;;2.63;100.00
45541;BME280;31265;49.680;8.608;2022-12-07T07:19:39;100676.75;;;2.61;100.00
45541;BME280;31265;49.680;8.608;2022-12-07T07:22:07;100680.25;;;2.62;100.00
45541;BME280;31265;49.680;8.608;2022-12-07T07:24:35;100685.00;;;2.61;100.00
45541;BME280;31265;49.680;8.608;2022-12-07T07:27:04;100683.00;;;2.62;100.00
45541;BME280;31265;49.680;8.608;2022-12-07T07:29:34;100680.50;;;2.64;100.00
45541;BME280;31265;49.680;8.608;2022-12-07T07:32:02;100679.75;;;2.69;100.00
45541;BME280;31265;49.680;8.608;2022-12-07T07:34:35;100678.75;;;2.72;100.00
45541;BME280;31265;49.680;8.608;2022-12-07T07:37:03;100676.53;;;2.70;100.00
45541;BME280;31265;49.680;8.608;2022-12-07T07:39:31;100687.75;;;2.72;100.00
45541;BME280;31265;49.680;8.608;2022-12-07T07:42:01;100686.75;;;2.70;100.00
45541;BME280;31265;49.680;8.608;2022-12-07T07:44:33;100689.47;;;2.75;100.00
45541;BME280;31265;49.680;8.608;2022-12-07T07:47:07;100698.19;;;2.74;100.00
45541;BME280;31265;49.680;8.608;2022-12-07T07:49:40;100683.50;;;2.77;100.00
45541;BME280;31265;49.680;8.608;2022-12-07T07:52:14;100696.97;;;2.75;100.00
45541;BME280;31265;49.680;8.608;2022-12-07T07:54:42;100689.97;;;2.79;100.00
45541;BME280;31265;49.680;8.608;2022-12-07T07:57:11;100691.19;;;2.84;100.00
45541;BME280;31265;49.680;8.608;2022-12-07T07:59:40;100695.94;;;2.89;100.00
45541;BME280;31265;49.680;8.608;2022-12-07T08:02:14;100694.44;;;2.88;100.00
45541;BME280;31265;49.680;8.608;2022-12-07T08:04:44;100693.22;;;2.95;100.00
45541;BME280;31265;49.680;8.608;2022-12-07T08:07:14;100692.44;;;3.00;100.00
45541;BME280;31265;49.680;8.608;2022-12-07T08:09:42;100691.72;;;2.99;100.00
45541;BME280;31265;49.680;8.608;2022-12-07T08:12:10;100694.44;;;3.05;100.00
45541;BME280;31265;49.680;8.608;2022-12-07T08:14:39;100689.22;;;3.07;100.00
45541;BME280;31265;49.680;8.608;2022-12-07T08:17:08;100692.19;;;3.15;100.00
45541;BME280;31265;49.680;8.608;2022-12-07T08:19:36;100698.44;;;3.10;100.00
45541;BME280;31265;49.680;8.608;2022-12-07T08:22:06;100697.69;;;3.09;100.00
45541;BME280;31265;49.680;8.608;2022-12-07T08:24:35;100702.66;;;3.11;100.00
45541;BME280;31265;49.680;8.608;2022-12-07T08:27:05;100699.66;;;3.09;100.00
45541;BME280;31265;49.680;8.608;2022-12-07T08:29:33;100693.41;;;3.14;100.00
45541;BME280;31265;49.680;8.608;2022-12-07T08:32:02;100692.16;;;3.26;100.00
45541;BME280;31265;49.680;8.608;2022-12-07T08:34:36;100701.63;;;3.36;100.00
45541;BME280;31265;49.680;8.608;2022-12-07T08:37:06;100701.09;;;3.43;100.00
45541;BME280;31265;49.680;8.608;2022-12-07T08:39:34;100706.06;;;3.51;100.00
45541;BME280;31265;49.680;8.608;2022-12-07T08:42:03;100704.81;;;3.52;100.00
45541;BME280;31265;49.680;8.608;2022-12-07T08:44:32;100705.31;;;3.50;100.00
45541;BME280;31265;49.680;8.608;2022-12-07T08:47:03;100701.56;;;3.48;100.00
45541;BME280;31265;49.680;8.608;2022-12-07T08:49:36;100704.06;;;3.45;100.00
45541;BME280;31265;49.680;8.608;2022-12-07T08:52:09;100708.53;;;3.49;100.00
45541;BME280;31265;49.680;8.608;2022-12-07T08:54:39;100708.06;;;3.50;100.00
45541;BME280;31265;49.680;8.608;2022-12-07T08:57:11;100712.78;;;3.55;100.00
45541;BME280;31265;49.680;8.608;2022-12-07T08:59:40;100706.31;;;3.53;100.00
45541;BME280;31265;49.680;8.608;2022-12-07T09:02:08;100703.03;;;3.60;100.00
45541;BME280;31265;49.680;8.608;2022-12-07T09:04:37;100702.50;;;3.67;100.00
45541;BME280;31265;49.680;8.608;2022-12-07T09:07:06;100704.97;;;3.76;100.00
45541;BME280;31265;49.680;8.608;2022-12-07T09:09:36;100707.63;;;3.99;100.00
45541;BME280;31265;49.680;8.608;2022-12-07T09:12:05;100695.66;;;3.96;100.00
45541;BME280;31265;49.680;8.608;2022-12-07T09:14:33;100694.09;;;4.06;100.00
45541;BME280;31265;49.680;8.608;2022-12-07T09:17:08;100701.53;;;4.17;100.00
45541;BME280;31265;49.680;8.608;2022-12-07T09:19:39;100694.84;;;4.07;100.00
45541;BME280;31265;49.680;8.608;2022-12-07T09:22:10;100702.16;;;4.35;100.00
45541;BME280;31265;49.680;8.608;2022-12-07T09:24:40;100694.16;;;4.37;100.00
45541;BME280;31265;49.680;8.608;2022-12-07T09:27:11;100707.66;;;4.35;100.00
45541;BME280;31265;49.680;8.608;2022-12-07T09:29:39;100705.16;;;4.37;100.00
45541;BME280;31265;49.680;8.608;2022-12-07T09:32:11;100706.97;;;4.28;100.00
45541;BME280;31265;49.680;8.608;2022-12-07T09:34:40;100696.97;;;4.31;100.00
45541;BME280;31265;49.680;8.608;2022-12-07T09:37:08;100696.03;;;4.23;100.00
45541;BME280;31265;49.680;8.608;2022-12-07T09:39:39;100705.66;;;4.35;100.00
45541;BME280;31265;49.680;8.608;2022-12-07T09:42:26;100698.38;;;4.43;100.00
45541;BME280;31265;49.680;8.608;2022-12-07T09:44:55;100698.88;;;4.42;100.00
45541;BME280;31265;49.680;8.608;2022-12-07T09:47:24;100698.13;;;4.41;100.00
45541;BME280;31265;49.680;8.608;2022-12-07T09:50:03;100700.72;;;4.64;100.00
45541;BME280;31265;49.680;8.608;2022-12-07T09:52:32;100705.38;;;4.74;100.00
45541;BME280;31265;49.680;8.608;2022-12-07T09:55:12;100693.81;;;4.82;100.00
45541;BME280;31265;49.680;8.608;2022-12-07T09:57:41;100691.91;;;5.01;100.00
45541;BME280;31265;49.680;8.608;2022-12-07T10:00:13;100696.78;;;5.14;100.00
45541;BME280;31265;49.680;8.608;2022-12-07T10:02:44;100689.47;;;4.92;100.00
45541;BME280;31265;49.680;8.608;2022-12-07T10:05:16;100694.66;;;5.01;100.00
45541;BME280;31265;49.680;8.608;2022-12-07T10:07:51;100684.66;;;4.73;100.00
45541;BME280;31265;49.680;8.608;2022-12-07T10:10:23;100691.50;;;4.61;100.00
45541;BME280;31265;49.680;8.608;2022-12-07T10:12:57;100676.03;;;4.88;100.00
45541;BME280;31265;49.680;8.608;2022-12-07T10:15:45;100674.44;;;4.99;100.00
45541;BME280;31265;49.680;8.608;2022-12-07T10:18:36;100669.44;;;5.22;100.00
45541;BME280;31265;49.680;8.608;2022-12-07T10:21:20;100673.88;;;5.30;100.00
45541;BME280;31265;49.680;8.608;2022-12-07T10:24:02;100664.28;;;5.37;100.00
45541;BME280;31265;49.680;8.608;2022-12-07T10:26:34;100662.47;;;5.21;100.00
45541;BME280;31265;49.680;8.608;2022-12-07T10:29:14;100663.75;;;4.89;100.00
45541;BME280;31265;49.680;8.608;2022-12-07T10:31:45;100658.47;;;4.97;100.00
45541;BME280;31265;49.680;8.608;2022-12-07T10:34:21;100653.72;;;4.92;100.00
45541;BME280;31265;49.680;8.608;2022-12-07T10:36:52;100662.56;;;4.85;100.00
45541;BME280;31265;49.680;8.608;2022-12-07T10:39:24;100660.16;;;4.76;100.00
45541;BME280;31265;49.680;8.608;2022-12-07T10:41:56;100657.91;;;4.74;100.00
45541;BME280;31265;49.680;8.608;2022-12-07T10:44:26;100657.53;;;4.59;100.00
45541;BME280;31265;49.680;8.608;2022-12-07T10:50:17;100659.00;;;4.65;100.00
45541;BME280;31265;49.680;8.608;2022-12-07T10:53:17;100656.59;;;4.81;100.00
45541;BME280;31265;49.680;8.608;2022-12-07T10:56:09;100652.75;;;4.89;100.00
45541;BME280;31265;49.680;8.608;2022-12-07T10:58:53;100654.44;;;4.98;100.00
45541;BME280;31265;49.680;8.608;2022-12-07T11:01:28;100648.63;;;5.02;100.00
45541;BME280;31265;49.680;8.608;2022-12-07T11:04:11;100644.47;;;4.95;100.00
45541;BME280;31265;49.680;8.608;2022-12-07T11:07:07;100642.69;;;5.22;100.00
45541;BME280;31265;49.680;8.608;2022-12-07T11:09:59;100635.34;;;5.06;100.00
45541;BME280;31265;49.680;8.608;2022-12-07T11:12:50;100632.28;;;5.15;100.00
45541;BME280;31265;49.680;8.608;2022-12-07T11:15:38;100622.81;;;5.10;100.00
45541;BME280;31265;49.680;8.608;2022-12-07T11:18:14;100624.91;;;5.23;100.00
45541;BME280;31265;49.680;8.608;2022-12-07T11:21:06;100620.72;;;5.16;100.00
45541;BME280;31265;49.680;8.608;2022-12-07T11:23:44;100615.63;;;5.26;100.00
45541;BME280;31265;49.680;8.608;2022-12-07T11:26:23;100609.84;;;5.30;100.00
45541;BME280;31265;49.680;8.608;2022-12-07T11:29:13;100610.81;;;5.32;100.00
45541;BME280;31265;49.680;8.608;2022-12-07T11:32:02;100602.97;;;5.17;100.00
45541;BME280;31265;49.680;8.608;2022-12-07T11:34:39;100602.94;;;5.42;100.00
45541;BME280;31265;49.680;8.608;2022-12-07T11:37:12;100601.97;;;5.58;100.00
45541;BME280;31265;49.680;8.608;2022-12-07T11:39:46;100597.97;;;5.59;100.00
45541;BME280;31265;49.680;8.608;2022-12-07T11:42:21;100594.41;;;5.65;100.00
45541;BME280;31265;49.680;8.608;2022-12-07T11:44:55;100588.59;;;5.49;100.00
45541;BME280;31265;49.680;8.608;2022-12-07T11:47:35;100594.22;;;5.38;100.00
45541;BME280;31265;49.680;8.608;2022-12-07T11:50:21;100593.59;;;5.26;100.00
45541;BME280;31265;49.680;8.608;2022-12-07T11:52:56;100591.97;;;5.17;100.00
45541;BME280;31265;49.680;8.608;2022-12-07T11:55:29;100584.72;;;5.39;100.00
45541;BME280;31265;49.680;8.608;2022-12-07T11:58:09;100581.28;;;5.71;100.00
45541;BME280;31265;49.680;8.608;2022-12-07T12:00:42;100579.00;;;5.94;100.00
45541;BME280;31265;49.680;8.608;2022-12-07T12:03:17;100572.41;;;5.78;100.00
45541;BME280;31265;49.680;8.608;2022-12-07T12:05:53;100583.06;;;5.87;100.00
45541;BME280;31265;49.680;8.608;2022-12-07T12:08:25;100578.28;;;5.88;100.00
45541;BME280;31265;49.680;8.608;2022-12-07T12:11:29;100576.97;;;5.94;100.00
45541;BME280;31265;49.680;8.608;2022-12-07T12:14:18;100572.69;;;5.93;100.00
45541;BME280;31265;49.680;8.608;2022-12-07T12:20:19;100571.22;;;5.92;100.00
45541;BME280;31265;49.680;8.608;2022-12-07T12:22:52;100570.72;;;5.75;100.00
45541;BME280;31265;49.680;8.608;2022-12-07T12:25:25;100559.25;;;5.71;100.00
45541;BME280;31265;49.680;8.608;2022-12-07T12:27:58;100558.50;;;5.51;100.00
45541;BME280;31265;49.680;8.608;2022-12-07T12:30:35;100562.84;;;5.47;100.00
45541;BME280;31265;49.680;8.608;2022-12-07T12:33:11;100560.31;;;5.49;100.00
45541;BME280;31265;49.680;8.608;2022-12-07T12:35:42;100562.91;;;5.41;100.00
45541;BME280;31265;49.680;8.608;2022-12-07T12:38:27;100555.41;;;5.42;100.00
45541;BME280;31265;49.680;8.608;2022-12-07T12:40:57;100546.19;;;5.39;100.00
45541;BME280;31265;49.680;8.608;2022-12-07T12:43:43;100550.19;;;5.38;100.00
45541;BME280;31265;49.680;8.608;2022-12-07T12:46:52;100544.56;;;5.49;100.00
45541;BME280;31265;49.680;8.608;2022-12-07T12:49:37;100537.69;;;5.56;100.00
45541;BME280;31265;49.680;8.608;2022-12-07T13:01:38;100525.25;;;5.68;100.00
45541;BME280;31265;49.680;8.608;2022-12-07T13:04:29;100528.44;;;5.72;100.00
45541;BME280;31265;49.680;8.608;2022-12-07T13:07:10;100523.03;;;5.67;100.00
45541;BME280;31265;49.680;8.608;2022-12-07T13:09:44;100522.22;;;5.72;100.00
45541;BME280;31265;49.680;8.608;2022-12-07T13:12:19;100515.81;;;5.64;100.00
45541;BME280;31265;49.680;8.608;2022-12-07T13:14:56;100510.63;;;5.60;100.00
45541;BME280;31265;49.680;8.608;2022-12-07T13:18:03;100503.63;;;5.59;100.00
45541;BME280;31265;49.680;8.608;2022-12-07T13:20:47;100499.69;;;5.54;100.00
45541;BME280;31265;49.680;8.608;2022-12-07T13:23:29;100501.16;;;5.55;100.00
45541;BME280;31265;49.680;8.608;2022-12-07T13:26:06;100501.72;;;5.35;100.00
45541;BME280;31265;49.680;8.608;2022-12-07T13:28:47;100498.88;;;5.41;100.00
45541;BME280;31265;49.680;8.608;2022-12-07T13:31:27;100498.19;;;5.53;100.00
45541;BME280;31265;49.680;8.608;2022-12-07T13:34:03;100498.66;;;5.38;100.00
45541;BME280;31265;49.680;8.608;2022-12-07T13:36:36;100495.06;;;5.44;100.00
45541;BME280;31265;49.680;8.608;2022-12-07T13:39:17;100497.38;;;5.58;100.00
45541;BME280;31265;49.680;8.608;2022-12-07T13:41:50;100493.09;;;5.44;100.00